Log in Register

Login to your account

Username *
Password *
Remember Me

Create an account

Fields marked with an asterisk (*) are required.
Name *
Username *
Password *
Verify password *
Email *
Verify email *

Nous contacter

 Téléphone : +33 (0)4 79 54 41 81

Coordonnées détaillées et accès : cliquez ici

 
LFLB °C
    Ferienhaus Ostsee
[source: ADDS]
METAR
LFLB 200400Z AUTO 21002KT CAVOK 16/15 Q1014 TEMPO 4000 SHRA SCT090TCU =
TAF LFLB 192300Z 2000/2024 VRB03KT CAVOK PROB40 TEMPO 2000/2012 4000 SHRA SCT090TCU PROB40 TEMPO 2012/2022 4000 SHRA SCT040 BKN060TCU PROB30 TEMPO 2013/2021 VRB15KT 2000 TSRA BKN050CB
TAF
TAF LFLB 192300Z 2000/2024 VRB03KT CAVOK PROB40 TEMPO 2000/2012 4000 SHRA SCT090TCU PROB40 TEMPO 2012/2022 4000 SHRA SCT040 BKN060TCU PROB30 TEMPO 2013/2021 VRB15KT 2000 TSRA BKN050CB =
SR / SS: 05:21 / 17:37 UTC (Lever/Coucher du soleil le 2020-09-20)
JSN Boot template designed by JoomlaShine.com